sensor_id;sensor_type;location;lat;lon;timestamp;pressure;altitude;pressure_sealevel;temperature;humidity
55347;BME280;41218;55.700;38.270;2023-04-04T00:01:32;99709.50;;;7.18;72.84
55347;BME280;41218;55.700;38.270;2023-04-04T00:06:33;99713.03;;;7.19;72.68
55347;BME280;41218;55.700;38.270;2023-04-04T00:11:33;99705.41;;;7.12;72.79
55347;BME280;41218;55.700;38.270;2023-04-04T00:16:34;99715.00;;;7.18;72.96
55347;BME280;41218;55.700;38.270;2023-04-04T00:21:34;99711.47;;;7.18;73.15
55347;BME280;41218;55.700;38.270;2023-04-04T00:26:35;99719.72;;;7.18;73.02
55347;BME280;41218;55.700;38.270;2023-04-04T00:31:35;99717.63;;;7.15;72.89
55347;BME280;41218;55.700;38.270;2023-04-04T00:36:36;99710.09;;;7.12;72.95
55347;BME280;41218;55.700;38.270;2023-04-04T00:41:36;99712.84;;;7.12;73.14
55347;BME280;41218;55.700;38.270;2023-04-04T00:46:37;99709.53;;;7.06;73.03
55347;BME280;41218;55.700;38.270;2023-04-04T00:51:37;99704.38;;;7.05;73.44
55347;BME280;41218;55.700;38.270;2023-04-04T00:56:38;99700.50;;;7.06;73.33
55347;BME280;41218;55.700;38.270;2023-04-04T01:01:39;99695.78;;;7.06;73.38
55347;BME280;41218;55.700;38.270;2023-04-04T01:06:40;99691.81;;;7.04;73.04
55347;BME280;41218;55.700;38.270;2023-04-04T01:11:42;99701.75;;;7.08;73.44
55347;BME280;41218;55.700;38.270;2023-04-04T01:16:43;99693.50;;;7.08;73.16
55347;BME280;41218;55.700;38.270;2023-04-04T01:21:46;99679.97;;;7.03;73.18
55347;BME280;41218;55.700;38.270;2023-04-04T01:26:49;99685.84;;;7.01;73.59
55347;BME280;41218;55.700;38.270;2023-04-04T01:31:55;99679.06;;;6.99;73.37
55347;BME280;41218;55.700;38.270;2023-04-04T01:37:06;99681.03;;;6.98;73.75
55347;BME280;41218;55.700;38.270;2023-04-04T01:42:11;99689.72;;;7.00;73.49
55347;BME280;41218;55.700;38.270;2023-04-04T01:47:12;99686.88;;;6.97;73.49
55347;BME280;41218;55.700;38.270;2023-04-04T01:52:13;99689.28;;;6.98;73.36
55347;BME280;41218;55.700;38.270;2023-04-04T01:57:13;99686.06;;;6.96;73.30
55347;BME280;41218;55.700;38.270;2023-04-04T02:02:14;99692.38;;;6.97;73.29
55347;BME280;41218;55.700;38.270;2023-04-04T02:07:14;99697.88;;;6.97;73.40
55347;BME280;41218;55.700;38.270;2023-04-04T02:12:15;99684.72;;;6.90;73.31
55347;BME280;41218;55.700;38.270;2023-04-04T02:17:15;99689.97;;;6.83;72.89
55347;BME280;41218;55.700;38.270;2023-04-04T02:22:16;99695.94;;;6.85;72.93
55347;BME280;41218;55.700;38.270;2023-04-04T02:27:16;99693.44;;;6.80;73.11
55347;BME280;41218;55.700;38.270;2023-04-04T02:32:17;99691.47;;;6.80;73.31
55347;BME280;41218;55.700;38.270;2023-04-04T02:37:17;99693.91;;;6.82;73.27
55347;BME280;41218;55.700;38.270;2023-04-04T02:42:18;99689.53;;;6.81;73.35
55347;BME280;41218;55.700;38.270;2023-04-04T02:47:18;99699.72;;;6.80;72.96
55347;BME280;41218;55.700;38.270;2023-04-04T02:52:20;99708.09;;;6.84;73.24
55347;BME280;41218;55.700;38.270;2023-04-04T02:57:21;99695.63;;;6.74;73.28
55347;BME280;41218;55.700;38.270;2023-04-04T03:02:23;99698.59;;;6.81;73.10
55347;BME280;41218;55.700;38.270;2023-04-04T03:07:23;99696.53;;;6.78;73.04
55347;BME280;41218;55.700;38.270;2023-04-04T03:12:24;99702.03;;;6.78;73.44
55347;BME280;41218;55.700;38.270;2023-04-04T03:17:24;99704.75;;;6.78;73.35
55347;BME280;41218;55.700;38.270;2023-04-04T03:22:25;99696.06;;;6.76;73.33
55347;BME280;41218;55.700;38.270;2023-04-04T03:27:26;99702.03;;;6.78;73.20
55347;BME280;41218;55.700;38.270;2023-04-04T03:32:26;99703.25;;;6.81;73.06
55347;BME280;41218;55.700;38.270;2023-04-04T03:37:30;99701.69;;;6.80;73.18
55347;BME280;41218;55.700;38.270;2023-04-04T03:42:34;99694.56;;;6.79;73.44
55347;BME280;41218;55.700;38.270;2023-04-04T03:47:34;99702.81;;;6.79;73.34
55347;BME280;41218;55.700;38.270;2023-04-04T03:52:38;99704.88;;;6.82;73.33
55347;BME280;41218;55.700;38.270;2023-04-04T03:57:41;99708.88;;;6.85;73.31
55347;BME280;41218;55.700;38.270;2023-04-04T04:02:42;99714.16;;;6.90;72.95
55347;BME280;41218;55.700;38.270;2023-04-04T04:07:43;99713.31;;;6.89;73.22
55347;BME280;41218;55.700;38.270;2023-04-04T04:12:44;99721.56;;;6.89;72.97
55347;BME280;41218;55.700;38.270;2023-04-04T04:17:45;99714.94;;;6.90;73.08
55347;BME280;41218;55.700;38.270;2023-04-04T04:22:46;99712.53;;;6.89;73.30
55347;BME280;41218;55.700;38.270;2023-04-04T04:27:46;99706.25;;;6.88;73.42
55347;BME280;41218;55.700;38.270;2023-04-04T04:32:48;99708.28;;;6.91;73.35
55347;BME280;41218;55.700;38.270;2023-04-04T04:37:49;99712.31;;;6.94;73.41
55347;BME280;41218;55.700;38.270;2023-04-04T04:42:49;99707.34;;;6.99;73.43
55347;BME280;41218;55.700;38.270;2023-04-04T04:47:50;99716.53;;;7.04;73.55
55347;BME280;41218;55.700;38.270;2023-04-04T04:52:51;99705.63;;;7.07;73.37
55347;BME280;41218;55.700;38.270;2023-04-04T04:57:51;99719.72;;;7.18;73.32
55347;BME280;41218;55.700;38.270;2023-04-04T05:02:54;99717.25;;;7.29;73.51
55347;BME280;41218;55.700;38.270;2023-04-04T05:07:55;99720.19;;;7.36;73.61
55347;BME280;41218;55.700;38.270;2023-04-04T05:12:56;99723.63;;;7.45;73.55
55347;BME280;41218;55.700;38.270;2023-04-04T05:17:57;99720.97;;;7.49;73.44
55347;BME280;41218;55.700;38.270;2023-04-04T05:22:58;99719.22;;;7.56;73.63
55347;BME280;41218;55.700;38.270;2023-04-04T05:27:58;99703.53;;;7.57;73.36
55347;BME280;41218;55.700;38.270;2023-04-04T05:32:59;99714.19;;;7.74;73.14
55347;BME280;41218;55.700;38.270;2023-04-04T05:37:59;99708.44;;;7.79;73.27
55347;BME280;41218;55.700;38.270;2023-04-04T05:43:00;99707.50;;;7.88;73.11
55347;BME280;41218;55.700;38.270;2023-04-04T05:48:03;99692.94;;;7.87;72.90
55347;BME280;41218;55.700;38.270;2023-04-04T05:53:03;99701.13;;;7.99;72.87
55347;BME280;41218;55.700;38.270;2023-04-04T05:58:04;99696.75;;;7.98;72.93
55347;BME280;41218;55.700;38.270;2023-04-04T06:03:05;99689.03;;;8.04;72.57
55347;BME280;41218;55.700;38.270;2023-04-04T06:08:05;99696.22;;;8.25;72.64
55347;BME280;41218;55.700;38.270;2023-04-04T06:13:06;99702.09;;;8.39;72.59
55347;BME280;41218;55.700;38.270;2023-04-04T06:18:06;99709.94;;;8.53;72.44
55347;BME280;41218;55.700;38.270;2023-04-04T06:23:07;99705.06;;;8.62;71.92
55347;BME280;41218;55.700;38.270;2023-04-04T06:28:09;99707.38;;;8.60;71.93
55347;BME280;41218;55.700;38.270;2023-04-04T06:33:10;99708.41;;;8.71;71.45
55347;BME280;41218;55.700;38.270;2023-04-04T06:38:11;99712.91;;;8.79;71.27
55347;BME280;41218;55.700;38.270;2023-04-04T06:43:12;99720.72;;;8.93;71.34
55347;BME280;41218;55.700;38.270;2023-04-04T06:48:13;99715.00;;;9.02;71.13
55347;BME280;41218;55.700;38.270;2023-04-04T06:53:13;99693.38;;;9.04;71.25
55347;BME280;41218;55.700;38.270;2023-04-04T06:58:14;99716.41;;;9.31;70.89
55347;BME280;41218;55.700;38.270;2023-04-04T07:03:14;99711.56;;;9.44;70.63
55347;BME280;41218;55.700;38.270;2023-04-04T07:08:16;99726.72;;;9.54;70.37
55347;BME280;41218;55.700;38.270;2023-04-04T07:13:16;99709.50;;;9.60;70.24
55347;BME280;41218;55.700;38.270;2023-04-04T07:18:17;99720.03;;;9.74;70.16
55347;BME280;41218;55.700;38.270;2023-04-04T07:23:17;99710.00;;;9.86;69.60
55347;BME280;41218;55.700;38.270;2023-04-04T07:28:18;99718.91;;;9.98;69.50
55347;BME280;41218;55.700;38.270;2023-04-04T07:33:18;99709.22;;;10.08;69.22
55347;BME280;41218;55.700;38.270;2023-04-04T07:38:19;99722.50;;;10.22;68.83
55347;BME280;41218;55.700;38.270;2023-04-04T07:43:19;99708.28;;;10.23;68.82
55347;BME280;41218;55.700;38.270;2023-04-04T07:48:20;99721.72;;;10.45;68.63
55347;BME280;41218;55.700;38.270;2023-04-04T07:53:21;99731.66;;;10.49;68.13
55347;BME280;41218;55.700;38.270;2023-04-04T07:58:23;99723.44;;;10.53;67.84
55347;BME280;41218;55.700;38.270;2023-04-04T08:03:23;99722.72;;;10.59;67.70
55347;BME280;41218;55.700;38.270;2023-04-04T08:08:24;99732.78;;;10.71;67.44
55347;BME280;41218;55.700;38.270;2023-04-04T08:13:25;99729.69;;;10.76;67.06
55347;BME280;41218;55.700;38.270;2023-04-04T08:18:26;99735.41;;;10.87;66.93
55347;BME280;41218;55.700;38.270;2023-04-04T08:23:26;99732.78;;;10.98;66.57
55347;BME280;41218;55.700;38.270;2023-04-04T08:28:28;99732.50;;;11.07;66.24
55347;BME280;41218;55.700;38.270;2023-04-04T08:33:29;99741.41;;;11.19;65.85
55347;BME280;41218;55.700;38.270;2023-04-04T08:38:30;99736.81;;;11.31;65.48
55347;BME280;41218;55.700;38.270;2023-04-04T08:43:33;99724.75;;;11.46;64.92
55347;BME280;41218;55.700;38.270;2023-04-04T08:48:34;99734.81;;;11.61;64.08
55347;BME280;41218;55.700;38.270;2023-04-04T08:53:37;99725.03;;;11.71;63.47
55347;BME280;41218;55.700;38.270;2023-04-04T08:58:38;99730.34;;;11.87;62.69
55347;BME280;41218;55.700;38.270;2023-04-04T09:03:39;99724.53;;;11.96;62.41
55347;BME280;41218;55.700;38.270;2023-04-04T09:08:40;99731.38;;;12.06;62.29
55347;BME280;41218;55.700;38.270;2023-04-04T09:13:43;99726.25;;;12.08;61.37
55347;BME280;41218;55.700;38.270;2023-04-04T09:18:44;99723.00;;;11.98;61.54
55347;BME280;41218;55.700;38.270;2023-04-04T09:23:44;99733.00;;;12.10;61.47
55347;BME280;41218;55.700;38.270;2023-04-04T09:28:51;99747.38;;;12.23;60.43
55347;BME280;41218;55.700;38.270;2023-04-04T09:33:52;99731.22;;;12.32;60.49
55347;BME280;41218;55.700;38.270;2023-04-04T09:38:53;99737.69;;;12.43;59.86
55347;BME280;41218;55.700;38.270;2023-04-04T09:43:56;99727.44;;;12.51;59.26
55347;BME280;41218;55.700;38.270;2023-04-04T09:48:59;99741.00;;;12.67;59.05
55347;BME280;41218;55.700;38.270;2023-04-04T09:53:59;99741.56;;;12.83;59.43
55347;BME280;41218;55.700;38.270;2023-04-04T09:59:00;99729.69;;;12.87;58.74
55347;BME280;41218;55.700;38.270;2023-04-04T10:04:02;99739.66;;;12.98;58.19
55347;BME280;41218;55.700;38.270;2023-04-04T10:09:03;99733.75;;;13.00;58.29
55347;BME280;41218;55.700;38.270;2023-04-04T10:14:08;99735.72;;;13.03;57.97
55347;BME280;41218;55.700;38.270;2023-04-04T10:19:09;99733.78;;;13.07;57.95
55347;BME280;41218;55.700;38.270;2023-04-04T10:24:11;99738.59;;;13.14;57.20
55347;BME280;41218;55.700;38.270;2023-04-04T10:29:13;99741.38;;;13.14;57.38
55347;BME280;41218;55.700;38.270;2023-04-04T10:34:19;99753.31;;;13.25;57.74
55347;BME280;41218;55.700;38.270;2023-04-04T10:44:44;99754.50;;;13.24;56.81
55347;BME280;41218;55.700;38.270;2023-04-04T10:49:46;99767.59;;;13.27;56.85
55347;BME280;41218;55.700;38.270;2023-04-04T10:54:53;99762.84;;;13.28;55.23
55347;BME280;41218;55.700;38.270;2023-04-04T10:59:57;99766.81;;;13.27;55.79
55347;BME280;41218;55.700;38.270;2023-04-04T11:05:33;99760.44;;;13.22;55.48
55347;BME280;41218;55.700;38.270;2023-04-04T11:10:43;99770.31;;;13.16;56.29
55347;BME280;41218;55.700;38.270;2023-04-04T11:16:12;99770.66;;;13.11;56.69
55347;BME280;41218;55.700;38.270;2023-04-04T11:21:19;99757.47;;;12.97;57.69
55347;BME280;41218;55.700;38.270;2023-04-04T11:46:47;99775.88;;;12.65;60.27
55347;BME280;41218;55.700;38.270;2023-04-04T11:51:48;99784.50;;;12.56;60.83
55347;BME280;41218;55.700;38.270;2023-04-04T11:56:49;99792.78;;;12.52;61.31
55347;BME280;41218;55.700;38.270;2023-04-04T12:01:50;99785.94;;;12.39;61.97
55347;BME280;41218;55.700;38.270;2023-04-04T12:06:54;99797.31;;;12.27;63.28
55347;BME280;41218;55.700;38.270;2023-04-04T12:11:56;99787.28;;;12.15;63.31
55347;BME280;41218;55.700;38.270;2023-04-04T12:16:57;99787.56;;;12.06;63.71
55347;BME280;41218;55.700;38.270;2023-04-04T12:21:58;99795.09;;;12.06;63.91
55347;BME280;41218;55.700;38.270;2023-04-04T12:26:59;99801.47;;;12.10;64.14
55347;BME280;41218;55.700;38.270;2023-04-04T12:32:01;99799.94;;;12.16;64.52
55347;BME280;41218;55.700;38.270;2023-04-04T12:37:02;99795.19;;;12.13;65.09
55347;BME280;41218;55.700;38.270;2023-04-04T12:42:03;99798.00;;;12.20;64.97
55347;BME280;41218;55.700;38.270;2023-04-04T12:47:08;99805.91;;;12.18;64.66
55347;BME280;41218;55.700;38.270;2023-04-04T12:52:38;99809.19;;;12.27;64.95
55347;BME280;41218;55.700;38.270;2023-04-04T12:57:39;99788.50;;;12.17;64.55
55347;BME280;41218;55.700;38.270;2023-04-04T13:02:43;99808.41;;;12.27;64.59
55347;BME280;41218;55.700;38.270;2023-04-04T13:07:47;99815.53;;;12.28;64.57
55347;BME280;41218;55.700;38.270;2023-04-04T13:13:00;99825.41;;;12.25;64.51
55347;BME280;41218;55.700;38.270;2023-04-04T13:18:13;99824.56;;;12.25;64.57
55347;BME280;41218;55.700;38.270;2023-04-04T13:23:14;99821.03;;;12.24;64.50
55347;BME280;41218;55.700;38.270;2023-04-04T13:28:15;99821.91;;;12.32;64.53
55347;BME280;41218;55.700;38.270;2023-04-04T13:33:16;99817.41;;;12.20;64.78
55347;BME280;41218;55.700;38.270;2023-04-04T13:38:17;99832.84;;;12.17;65.18
55347;BME280;41218;55.700;38.270;2023-04-04T13:43:18;99837.59;;;12.17;65.95
55347;BME280;41218;55.700;38.270;2023-04-04T13:48:18;99839.13;;;12.14;66.47
55347;BME280;41218;55.700;38.270;2023-04-04T13:53:19;99841.16;;;12.17;66.54
55347;BME280;41218;55.700;38.270;2023-04-04T13:58:19;99842.69;;;12.15;66.54
55347;BME280;41218;55.700;38.270;2023-04-04T14:03:20;99846.25;;;12.15;66.71
55347;BME280;41218;55.700;38.270;2023-04-04T14:08:21;99857.34;;;12.15;66.96
55347;BME280;41218;55.700;38.270;2023-04-04T14:13:21;99855.75;;;12.14;67.39
55347;BME280;41218;55.700;38.270;2023-04-04T14:18:22;99845.06;;;12.13;67.48
55347;BME280;41218;55.700;38.270;2023-04-04T14:23:22;99841.44;;;12.09;67.79
55347;BME280;41218;55.700;38.270;2023-04-04T14:28:23;99836.56;;;11.98;67.90
55347;BME280;41218;55.700;38.270;2023-04-04T14:33:24;99842.13;;;11.98;68.07
55347;BME280;41218;55.700;38.270;2023-04-04T14:38:24;99835.38;;;11.99;68.44
55347;BME280;41218;55.700;38.270;2023-04-04T14:43:25;99838.50;;;11.94;68.49
55347;BME280;41218;55.700;38.270;2023-04-04T14:48:25;99844.03;;;11.94;68.65
55347;BME280;41218;55.700;38.270;2023-04-04T14:53:26;99850.81;;;11.97;68.60
55347;BME280;41218;55.700;38.270;2023-04-04T14:58:26;99855.56;;;11.96;68.83
55347;BME280;41218;55.700;38.270;2023-04-04T15:03:27;99860.66;;;11.94;68.83
55347;BME280;41218;55.700;38.270;2023-04-04T15:08:28;99862.19;;;11.92;68.97
55347;BME280;41218;55.700;38.270;2023-04-04T15:13:28;99853.84;;;11.88;69.06
55347;BME280;41218;55.700;38.270;2023-04-04T15:18:29;99856.91;;;11.83;69.03
55347;BME280;41218;55.700;38.270;2023-04-04T15:23:29;99865.53;;;11.78;69.03
55347;BME280;41218;55.700;38.270;2023-04-04T15:28:30;99861.94;;;11.74;69.07
55347;BME280;41218;55.700;38.270;2023-04-04T15:33:31;99856.19;;;11.59;69.06
55347;BME280;41218;55.700;38.270;2023-04-04T15:38:31;99866.41;;;11.55;69.12
55347;BME280;41218;55.700;38.270;2023-04-04T15:43:32;99867.53;;;11.51;69.11
55347;BME280;41218;55.700;38.270;2023-04-04T15:48:33;99859.47;;;11.38;69.21
55347;BME280;41218;55.700;38.270;2023-04-04T15:53:33;99873.66;;;11.37;69.50
55347;BME280;41218;55.700;38.270;2023-04-04T15:58:34;99876.34;;;11.30;69.26
55347;BME280;41218;55.700;38.270;2023-04-04T16:03:35;99882.53;;;11.23;69.45
55347;BME280;41218;55.700;38.270;2023-04-04T16:08:35;99885.56;;;11.14;69.53
55347;BME280;41218;55.700;38.270;2023-04-04T16:13:36;99873.78;;;10.94;69.37
55347;BME280;41218;55.700;38.270;2023-04-04T16:18:36;99889.16;;;10.92;69.54
55347;BME280;41218;55.700;38.270;2023-04-04T16:23:37;99898.41;;;10.80;69.64
55347;BME280;41218;55.700;38.270;2023-04-04T16:28:38;99898.59;;;10.68;69.71
55347;BME280;41218;55.700;38.270;2023-04-04T16:33:39;99909.47;;;10.57;69.94
55347;BME280;41218;55.700;38.270;2023-04-04T16:38:40;99921.09;;;10.47;70.02
55347;BME280;41218;55.700;38.270;2023-04-04T16:43:40;99914.03;;;10.30;70.37
55347;BME280;41218;55.700;38.270;2023-04-04T16:48:48;99930.16;;;10.28;70.53
55347;BME280;41218;55.700;38.270;2023-04-04T16:53:49;99932.69;;;10.17;70.26
55347;BME280;41218;55.700;38.270;2023-04-04T16:58:49;99936.41;;;10.05;70.35
55347;BME280;41218;55.700;38.270;2023-04-04T17:03:50;99929.47;;;9.95;70.60
55347;BME280;41218;55.700;38.270;2023-04-04T17:08:50;99933.63;;;9.86;70.54
55347;BME280;41218;55.700;38.270;2023-04-04T17:13:51;99941.47;;;9.83;70.73
55347;BME280;41218;55.700;38.270;2023-04-04T17:18:52;99950.38;;;9.77;70.88
55347;BME280;41218;55.700;38.270;2023-04-04T17:23:52;99943.91;;;9.69;70.92
55347;BME280;41218;55.700;38.270;2023-04-04T17:28:53;99951.31;;;9.65;70.93
55347;BME280;41218;55.700;38.270;2023-04-04T17:33:53;99949.94;;;9.59;71.04
55347;BME280;41218;55.700;38.270;2023-04-04T17:38:53;99960.47;;;9.53;71.22
55347;BME280;41218;55.700;38.270;2023-04-04T17:43:54;99959.94;;;9.48;71.30
55347;BME280;41218;55.700;38.270;2023-04-04T17:48:55;99945.81;;;9.33;71.19
55347;BME280;41218;55.700;38.270;2023-04-04T17:53:56;99953.72;;;9.35;71.25
55347;BME280;41218;55.700;38.270;2023-04-04T17:58:56;99957.97;;;9.32;71.35
55347;BME280;41218;55.700;38.270;2023-04-04T18:03:57;99957.91;;;9.29;71.48
55347;BME280;41218;55.700;38.270;2023-04-04T18:08:57;99957.72;;;9.21;71.42
55347;BME280;41218;55.700;38.270;2023-04-04T18:13:58;99944.91;;;9.13;71.46
55347;BME280;41218;55.700;38.270;2023-04-04T18:18:59;99955.59;;;9.15;71.69
55347;BME280;41218;55.700;38.270;2023-04-04T18:24:00;99943.47;;;9.03;71.79
55347;BME280;41218;55.700;38.270;2023-04-04T18:29:00;99959.78;;;9.09;71.99
55347;BME280;41218;55.700;38.270;2023-04-04T18:34:01;99973.56;;;9.09;71.80
55347;BME280;41218;55.700;38.270;2023-04-04T18:39:02;99968.28;;;9.03;71.68
55347;BME280;41218;55.700;38.270;2023-04-04T18:44:02;99964.28;;;9.01;71.86
55347;BME280;41218;55.700;38.270;2023-04-04T18:49:04;99968.13;;;8.96;71.86
55347;BME280;41218;55.700;38.270;2023-04-04T18:54:04;99964.47;;;8.92;71.96
55347;BME280;41218;55.700;38.270;2023-04-04T18:59:05;99953.59;;;8.83;72.08
55347;BME280;41218;55.700;38.270;2023-04-04T19:04:06;99964.16;;;8.81;72.33
55347;BME280;41218;55.700;38.270;2023-04-04T19:09:08;99960.88;;;8.76;72.14
55347;BME280;41218;55.700;38.270;2023-04-04T19:14:08;99965.69;;;8.79;71.89
55347;BME280;41218;55.700;38.270;2023-04-04T19:19:09;99963.88;;;8.71;71.95
55347;BME280;41218;55.700;38.270;2023-04-04T19:24:10;99955.78;;;8.62;72.10
55347;BME280;41218;55.700;38.270;2023-04-04T19:29:19;99958.22;;;8.51;72.54
55347;BME280;41218;55.700;38.270;2023-04-04T19:34:20;99954.50;;;8.44;72.31
55347;BME280;41218;55.700;38.270;2023-04-04T19:39:22;99958.16;;;8.35;72.33
55347;BME280;41218;55.700;38.270;2023-04-04T19:44:25;99947.16;;;8.23;72.54
55347;BME280;41218;55.700;38.270;2023-04-04T19:49:26;99950.97;;;8.18;72.52
55347;BME280;41218;55.700;38.270;2023-04-04T19:54:33;99969.34;;;8.14;72.70
55347;BME280;41218;55.700;38.270;2023-04-04T19:59:54;99964.66;;;8.02;72.83
55347;BME280;41218;55.700;38.270;2023-04-04T20:04:56;99978.78;;;8.01;72.73
55347;BME280;41218;55.700;38.270;2023-04-04T20:09:56;99963.53;;;7.91;72.65
55347;BME280;41218;55.700;38.270;2023-04-04T20:14:58;99972.47;;;7.88;72.81
55347;BME280;41218;55.700;38.270;2023-04-04T20:19:59;99970.53;;;7.76;72.81
55347;BME280;41218;55.700;38.270;2023-04-04T20:25:00;99988.56;;;7.74;73.03
55347;BME280;41218;55.700;38.270;2023-04-04T20:30:01;99986.59;;;7.74;72.89
55347;BME280;41218;55.700;38.270;2023-04-04T20:35:01;99991.75;;;7.63;72.82
55347;BME280;41218;55.700;38.270;2023-04-04T20:40:09;99991.88;;;7.55;73.10
55347;BME280;41218;55.700;38.270;2023-04-04T20:45:35;99980.75;;;7.39;72.93
55347;BME280;41218;55.700;38.270;2023-04-04T20:50:41;99984.53;;;7.34;73.00
55347;BME280;41218;55.700;38.270;2023-04-04T20:55:43;99999.88;;;7.35;73.21
55347;BME280;41218;55.700;38.270;2023-04-04T21:00:43;100008.69;;;7.29;73.01
55347;BME280;41218;55.700;38.270;2023-04-04T21:05:44;100002.94;;;7.21;73.17
55347;BME280;41218;55.700;38.270;2023-04-04T21:10:48;100013.03;;;7.17;73.06
55347;BME280;41218;55.700;38.270;2023-04-04T21:15:59;100004.09;;;7.08;73.10
55347;BME280;41218;55.700;38.270;2023-04-04T21:26:09;99998.44;;;6.92;73.26
55347;BME280;41218;55.700;38.270;2023-04-04T21:31:14;99999.44;;;6.88;73.15
55347;BME280;41218;55.700;38.270;2023-04-04T21:41:29;100001.22;;;6.71;73.55
55347;BME280;41218;55.700;38.270;2023-04-04T21:46:34;100002.22;;;6.67;73.06
55347;BME280;41218;55.700;38.270;2023-04-04T21:51:35;100007.94;;;6.61;73.33
55347;BME280;41218;55.700;38.270;2023-04-04T21:56:36;100012.81;;;6.56;73.16
55347;BME280;41218;55.700;38.270;2023-04-04T22:01:37;99995.69;;;6.38;73.42
55347;BME280;41218;55.700;38.270;2023-04-04T22:06:38;100015.84;;;6.42;73.48
55347;BME280;41218;55.700;38.270;2023-04-04T22:11:41;100015.38;;;6.40;73.40
55347;BME280;41218;55.700;38.270;2023-04-04T22:16:42;100025.75;;;6.34;73.19
55347;BME280;41218;55.700;38.270;2023-04-04T22:21:42;100023.22;;;6.29;73.28
55347;BME280;41218;55.700;38.270;2023-04-04T22:26:46;100013.09;;;6.21;73.50
55347;BME280;41218;55.700;38.270;2023-04-04T22:31:49;100019.59;;;6.16;73.41
55347;BME280;41218;55.700;38.270;2023-04-04T22:36:50;100027.00;;;6.16;73.35
55347;BME280;41218;55.700;38.270;2023-04-04T22:41:53;100029.97;;;6.11;73.36
55347;BME280;41218;55.700;38.270;2023-04-04T22:46:54;100033.38;;;6.08;73.78
55347;BME280;41218;55.700;38.270;2023-04-04T22:51:57;100031.16;;;6.01;73.87
55347;BME280;41218;55.700;38.270;2023-04-04T22:56:59;100032.75;;;6.02;73.35
55347;BME280;41218;55.700;38.270;2023-04-04T23:02:03;100039.41;;;5.92;73.38
55347;BME280;41218;55.700;38.270;2023-04-04T23:07:04;100036.56;;;5.80;73.32
55347;BME280;41218;55.700;38.270;2023-04-04T23:12:05;100036.09;;;5.78;73.47
55347;BME280;41218;55.700;38.270;2023-04-04T23:17:06;100052.09;;;5.76;73.46
55347;BME280;41218;55.700;38.270;2023-04-04T23:22:06;100053.41;;;5.70;73.50
55347;BME280;41218;55.700;38.270;2023-04-04T23:27:07;100053.25;;;5.66;73.77
55347;BME280;41218;55.700;38.270;2023-04-04T23:32:08;100054.22;;;5.61;73.47
55347;BME280;41218;55.700;38.270;2023-04-04T23:37:09;100047.47;;;5.59;73.73
55347;BME280;41218;55.700;38.270;2023-04-04T23:42:09;100050.06;;;5.55;73.70
55347;BME280;41218;55.700;38.270;2023-04-04T23:47:10;100043.97;;;5.41;73.50
55347;BME280;41218;55.700;38.270;2023-04-04T23:52:11;100059.13;;;5.47;73.85
55347;BME280;41218;55.700;38.270;2023-04-04T23:57:12;100064.47;;;5.44;73.76
